sensor_id;sensor_type;location;lat;lon;timestamp;temperature;humidity
36552;DHT22;22559;54.176;12.102;2023-05-09T00:01:16;11.00;99.90
36552;DHT22;22559;54.176;12.102;2023-05-09T00:03:42;10.90;99.90
36552;DHT22;22559;54.176;12.102;2023-05-09T00:06:08;11.00;99.90
36552;DHT22;22559;54.176;12.102;2023-05-09T00:08:35;10.90;99.90
36552;DHT22;22559;54.176;12.102;2023-05-09T00:11:02;10.90;99.90
36552;DHT22;22559;54.176;12.102;2023-05-09T00:13:28;10.80;99.90
36552;DHT22;22559;54.176;12.102;2023-05-09T00:15:54;10.80;99.90
36552;DHT22;22559;54.176;12.102;2023-05-09T00:18:22;10.80;99.90
36552;DHT22;22559;54.176;12.102;2023-05-09T00:20:49;10.70;99.90
36552;DHT22;22559;54.176;12.102;2023-05-09T00:23:14;10.70;99.90
36552;DHT22;22559;54.176;12.102;2023-05-09T00:25:41;10.70;99.90
36552;DHT22;22559;54.176;12.102;2023-05-09T00:28:07;10.70;99.90
36552;DHT22;22559;54.176;12.102;2023-05-09T00:30:32;10.70;99.90
36552;DHT22;22559;54.176;12.102;2023-05-09T00:32:58;10.60;99.90
36552;DHT22;22559;54.176;12.102;2023-05-09T00:35:24;10.60;99.90
36552;DHT22;22559;54.176;12.102;2023-05-09T00:37:49;10.60;99.90
36552;DHT22;22559;54.176;12.102;2023-05-09T00:40:15;10.60;99.90
36552;DHT22;22559;54.176;12.102;2023-05-09T00:42:41;10.40;99.90
36552;DHT22;22559;54.176;12.102;2023-05-09T00:45:07;10.50;99.90
36552;DHT22;22559;54.176;12.102;2023-05-09T00:47:33;10.50;99.90
36552;DHT22;22559;54.176;12.102;2023-05-09T00:50:00;10.40;99.90
36552;DHT22;22559;54.176;12.102;2023-05-09T00:52:26;10.40;99.90
36552;DHT22;22559;54.176;12.102;2023-05-09T00:54:52;10.30;99.90
36552;DHT22;22559;54.176;12.102;2023-05-09T00:57:18;10.30;99.90
36552;DHT22;22559;54.176;12.102;2023-05-09T00:59:44;10.30;99.90
36552;DHT22;22559;54.176;12.102;2023-05-09T01:02:09;10.30;99.90
36552;DHT22;22559;54.176;12.102;2023-05-09T01:04:36;10.20;99.90
36552;DHT22;22559;54.176;12.102;2023-05-09T01:10:17;10.10;99.90
36552;DHT22;22559;54.176;12.102;2023-05-09T01:13:00;10.10;99.90
36552;DHT22;22559;54.176;12.102;2023-05-09T01:18:42;10.00;99.90
36552;DHT22;22559;54.176;12.102;2023-05-09T01:21:14;9.90;99.90
36552;DHT22;22559;54.176;12.102;2023-05-09T01:26:35;9.80;99.90
36552;DHT22;22559;54.176;12.102;2023-05-09T01:31:40;9.90;99.90
36552;DHT22;22559;54.176;12.102;2023-05-09T01:34:10;9.80;99.90
36552;DHT22;22559;54.176;12.102;2023-05-09T01:36:37;9.90;99.90
36552;DHT22;22559;54.176;12.102;2023-05-09T01:39:05;9.90;99.90
36552;DHT22;22559;54.176;12.102;2023-05-09T01:41:36;9.90;99.90
36552;DHT22;22559;54.176;12.102;2023-05-09T01:44:04;9.90;99.90
36552;DHT22;22559;54.176;12.102;2023-05-09T01:46:31;9.90;99.90
36552;DHT22;22559;54.176;12.102;2023-05-09T01:48:58;9.80;99.90
36552;DHT22;22559;54.176;12.102;2023-05-09T01:51:25;9.80;99.90
36552;DHT22;22559;54.176;12.102;2023-05-09T01:53:51;9.80;99.90
36552;DHT22;22559;54.176;12.102;2023-05-09T01:56:19;9.80;99.90
36552;DHT22;22559;54.176;12.102;2023-05-09T01:58:46;9.80;99.90
36552;DHT22;22559;54.176;12.102;2023-05-09T02:01:14;9.70;99.90
36552;DHT22;22559;54.176;12.102;2023-05-09T02:03:42;9.70;99.90
36552;DHT22;22559;54.176;12.102;2023-05-09T02:06:10;9.60;99.90
36552;DHT22;22559;54.176;12.102;2023-05-09T02:08:35;9.60;99.90
36552;DHT22;22559;54.176;12.102;2023-05-09T02:11:02;9.60;99.90
36552;DHT22;22559;54.176;12.102;2023-05-09T02:13:27;9.60;99.90
36552;DHT22;22559;54.176;12.102;2023-05-09T02:15:54;9.50;99.90
36552;DHT22;22559;54.176;12.102;2023-05-09T02:18:20;9.50;99.90
36552;DHT22;22559;54.176;12.102;2023-05-09T02:20:46;9.50;99.90
36552;DHT22;22559;54.176;12.102;2023-05-09T02:23:12;9.50;99.90
36552;DHT22;22559;54.176;12.102;2023-05-09T02:25:38;9.40;99.90
36552;DHT22;22559;54.176;12.102;2023-05-09T02:28:05;9.40;99.90
36552;DHT22;22559;54.176;12.102;2023-05-09T02:30:36;9.40;99.90
36552;DHT22;22559;54.176;12.102;2023-05-09T02:33:06;9.40;99.90
36552;DHT22;22559;54.176;12.102;2023-05-09T02:35:32;9.30;99.90
36552;DHT22;22559;54.176;12.102;2023-05-09T02:37:59;9.30;99.90
36552;DHT22;22559;54.176;12.102;2023-05-09T02:40:29;9.30;99.90
36552;DHT22;22559;54.176;12.102;2023-05-09T02:46:08;9.20;99.90
36552;DHT22;22559;54.176;12.102;2023-05-09T02:48:34;9.20;99.90
36552;DHT22;22559;54.176;12.102;2023-05-09T02:51:00;9.20;99.90
36552;DHT22;22559;54.176;12.102;2023-05-09T02:53:26;9.20;99.90
36552;DHT22;22559;54.176;12.102;2023-05-09T02:55:51;9.20;99.90
36552;DHT22;22559;54.176;12.102;2023-05-09T02:58:18;9.20;99.90
36552;DHT22;22559;54.176;12.102;2023-05-09T03:00:44;9.20;99.90
36552;DHT22;22559;54.176;12.102;2023-05-09T03:03:09;9.20;99.90
36552;DHT22;22559;54.176;12.102;2023-05-09T03:05:35;9.20;99.90
36552;DHT22;22559;54.176;12.102;2023-05-09T03:08:01;9.20;99.90
36552;DHT22;22559;54.176;12.102;2023-05-09T03:10:27;9.20;99.90
36552;DHT22;22559;54.176;12.102;2023-05-09T03:12:52;9.20;99.90
36552;DHT22;22559;54.176;12.102;2023-05-09T03:15:19;9.20;99.90
36552;DHT22;22559;54.176;12.102;2023-05-09T03:17:45;9.20;99.90
36552;DHT22;22559;54.176;12.102;2023-05-09T03:20:11;9.20;99.90
36552;DHT22;22559;54.176;12.102;2023-05-09T03:22:37;9.20;99.90
36552;DHT22;22559;54.176;12.102;2023-05-09T03:25:02;9.10;99.90
36552;DHT22;22559;54.176;12.102;2023-05-09T03:30:53;9.10;99.90
36552;DHT22;22559;54.176;12.102;2023-05-09T03:33:19;9.10;99.90
36552;DHT22;22559;54.176;12.102;2023-05-09T03:35:44;9.10;99.90
36552;DHT22;22559;54.176;12.102;2023-05-09T03:38:10;9.20;99.90
36552;DHT22;22559;54.176;12.102;2023-05-09T03:40:36;9.10;99.90
36552;DHT22;22559;54.176;12.102;2023-05-09T03:43:01;9.10;99.90
36552;DHT22;22559;54.176;12.102;2023-05-09T03:45:27;9.10;99.90
36552;DHT22;22559;54.176;12.102;2023-05-09T03:47:52;9.10;99.90
36552;DHT22;22559;54.176;12.102;2023-05-09T03:50:18;9.10;99.90
36552;DHT22;22559;54.176;12.102;2023-05-09T03:52:44;9.10;99.90
36552;DHT22;22559;54.176;12.102;2023-05-09T03:55:09;9.10;99.90
36552;DHT22;22559;54.176;12.102;2023-05-09T03:57:35;9.10;99.90
36552;DHT22;22559;54.176;12.102;2023-05-09T04:00:02;9.10;99.90
36552;DHT22;22559;54.176;12.102;2023-05-09T04:02:29;9.10;99.90
36552;DHT22;22559;54.176;12.102;2023-05-09T04:04:54;9.10;99.90
36552;DHT22;22559;54.176;12.102;2023-05-09T04:07:20;9.10;99.90
36552;DHT22;22559;54.176;12.102;2023-05-09T04:09:46;9.20;99.90
36552;DHT22;22559;54.176;12.102;2023-05-09T04:12:12;9.10;99.90
36552;DHT22;22559;54.176;12.102;2023-05-09T04:14:38;9.20;99.90
36552;DHT22;22559;54.176;12.102;2023-05-09T04:17:04;9.20;99.90
36552;DHT22;22559;54.176;12.102;2023-05-09T04:19:29;9.30;99.90
36552;DHT22;22559;54.176;12.102;2023-05-09T04:21:55;9.30;99.90
36552;DHT22;22559;54.176;12.102;2023-05-09T04:24:20;9.30;99.90
36552;DHT22;22559;54.176;12.102;2023-05-09T04:26:46;9.40;99.90
36552;DHT22;22559;54.176;12.102;2023-05-09T04:29:12;9.40;99.90
36552;DHT22;22559;54.176;12.102;2023-05-09T04:31:37;9.40;99.90
36552;DHT22;22559;54.176;12.102;2023-05-09T04:34:03;9.40;99.90
36552;DHT22;22559;54.176;12.102;2023-05-09T04:36:29;9.40;99.90
36552;DHT22;22559;54.176;12.102;2023-05-09T04:38:56;9.40;99.90
36552;DHT22;22559;54.176;12.102;2023-05-09T04:41:21;9.40;99.90
36552;DHT22;22559;54.176;12.102;2023-05-09T04:43:48;9.50;99.90
36552;DHT22;22559;54.176;12.102;2023-05-09T04:46:13;9.50;99.90
36552;DHT22;22559;54.176;12.102;2023-05-09T04:48:39;9.60;99.90
36552;DHT22;22559;54.176;12.102;2023-05-09T04:51:05;9.60;99.90
36552;DHT22;22559;54.176;12.102;2023-05-09T04:53:30;9.60;99.90
36552;DHT22;22559;54.176;12.102;2023-05-09T04:55:56;9.60;99.90
36552;DHT22;22559;54.176;12.102;2023-05-09T04:58:22;9.70;99.90
36552;DHT22;22559;54.176;12.102;2023-05-09T05:00:47;9.70;99.90
36552;DHT22;22559;54.176;12.102;2023-05-09T05:03:14;9.80;99.90
36552;DHT22;22559;54.176;12.102;2023-05-09T05:05:42;9.80;99.90
36552;DHT22;22559;54.176;12.102;2023-05-09T05:08:07;9.80;99.90
36552;DHT22;22559;54.176;12.102;2023-05-09T05:10:33;9.90;99.90
36552;DHT22;22559;54.176;12.102;2023-05-09T05:12:59;9.90;99.90
36552;DHT22;22559;54.176;12.102;2023-05-09T05:15:24;10.00;99.90
36552;DHT22;22559;54.176;12.102;2023-05-09T05:17:51;10.00;99.90
36552;DHT22;22559;54.176;12.102;2023-05-09T05:20:17;10.10;99.90
36552;DHT22;22559;54.176;12.102;2023-05-09T05:22:42;10.10;99.90
36552;DHT22;22559;54.176;12.102;2023-05-09T05:25:08;10.20;99.90
36552;DHT22;22559;54.176;12.102;2023-05-09T05:27:34;10.30;99.90
36552;DHT22;22559;54.176;12.102;2023-05-09T05:30:00;10.30;99.90
36552;DHT22;22559;54.176;12.102;2023-05-09T05:32:25;10.40;99.90
36552;DHT22;22559;54.176;12.102;2023-05-09T05:34:51;10.40;99.90
36552;DHT22;22559;54.176;12.102;2023-05-09T05:37:16;10.50;99.90
36552;DHT22;22559;54.176;12.102;2023-05-09T05:39:42;10.50;99.90
36552;DHT22;22559;54.176;12.102;2023-05-09T05:42:07;10.60;99.90
36552;DHT22;22559;54.176;12.102;2023-05-09T05:44:33;10.70;99.90
36552;DHT22;22559;54.176;12.102;2023-05-09T05:46:59;10.70;99.90
36552;DHT22;22559;54.176;12.102;2023-05-09T05:49:24;10.80;99.90
36552;DHT22;22559;54.176;12.102;2023-05-09T05:51:50;10.90;99.90
36552;DHT22;22559;54.176;12.102;2023-05-09T05:54:16;10.90;99.90
36552;DHT22;22559;54.176;12.102;2023-05-09T05:56:41;11.00;99.90
36552;DHT22;22559;54.176;12.102;2023-05-09T05:59:07;11.20;99.90
36552;DHT22;22559;54.176;12.102;2023-05-09T06:01:33;11.30;99.90
36552;DHT22;22559;54.176;12.102;2023-05-09T06:03:59;11.40;99.90
36552;DHT22;22559;54.176;12.102;2023-05-09T06:06:25;11.50;99.90
36552;DHT22;22559;54.176;12.102;2023-05-09T06:08:51;11.50;99.90
36552;DHT22;22559;54.176;12.102;2023-05-09T06:11:17;11.60;99.90
36552;DHT22;22559;54.176;12.102;2023-05-09T06:13:43;11.80;99.90
36552;DHT22;22559;54.176;12.102;2023-05-09T06:16:09;11.80;99.90
36552;DHT22;22559;54.176;12.102;2023-05-09T06:18:35;11.90;99.90
36552;DHT22;22559;54.176;12.102;2023-05-09T06:21:10;12.00;99.90
36552;DHT22;22559;54.176;12.102;2023-05-09T06:23:36;12.00;99.90
36552;DHT22;22559;54.176;12.102;2023-05-09T06:26:02;12.10;99.90
36552;DHT22;22559;54.176;12.102;2023-05-09T06:28:28;12.20;99.90
36552;DHT22;22559;54.176;12.102;2023-05-09T06:30:54;12.20;99.90
36552;DHT22;22559;54.176;12.102;2023-05-09T06:33:19;12.30;99.90
36552;DHT22;22559;54.176;12.102;2023-05-09T06:35:45;12.40;99.90
36552;DHT22;22559;54.176;12.102;2023-05-09T06:38:11;12.50;99.90
36552;DHT22;22559;54.176;12.102;2023-05-09T06:40:36;12.80;99.90
36552;DHT22;22559;54.176;12.102;2023-05-09T06:43:02;13.10;99.90
36552;DHT22;22559;54.176;12.102;2023-05-09T06:45:27;13.40;99.90
36552;DHT22;22559;54.176;12.102;2023-05-09T06:47:54;13.40;99.90
36552;DHT22;22559;54.176;12.102;2023-05-09T06:50:20;13.50;99.90
36552;DHT22;22559;54.176;12.102;2023-05-09T06:52:46;13.60;99.90
36552;DHT22;22559;54.176;12.102;2023-05-09T06:55:11;13.60;99.90
36552;DHT22;22559;54.176;12.102;2023-05-09T06:57:38;13.60;99.90
36552;DHT22;22559;54.176;12.102;2023-05-09T07:00:05;13.70;99.90
36552;DHT22;22559;54.176;12.102;2023-05-09T07:02:31;13.90;99.90
36552;DHT22;22559;54.176;12.102;2023-05-09T07:04:57;14.20;99.90
36552;DHT22;22559;54.176;12.102;2023-05-09T07:07:22;14.40;99.90
36552;DHT22;22559;54.176;12.102;2023-05-09T07:09:48;14.40;99.90
36552;DHT22;22559;54.176;12.102;2023-05-09T07:12:13;14.40;99.90
36552;DHT22;22559;54.176;12.102;2023-05-09T07:14:39;14.60;99.90
36552;DHT22;22559;54.176;12.102;2023-05-09T07:17:06;14.70;99.90
36552;DHT22;22559;54.176;12.102;2023-05-09T07:19:33;14.80;99.90
36552;DHT22;22559;54.176;12.102;2023-05-09T07:21:58;14.80;99.90
36552;DHT22;22559;54.176;12.102;2023-05-09T07:24:24;14.80;99.90
36552;DHT22;22559;54.176;12.102;2023-05-09T07:26:49;15.00;99.90
36552;DHT22;22559;54.176;12.102;2023-05-09T07:29:15;15.10;99.90
36552;DHT22;22559;54.176;12.102;2023-05-09T07:31:42;15.20;99.90
36552;DHT22;22559;54.176;12.102;2023-05-09T07:34:08;15.30;99.90
36552;DHT22;22559;54.176;12.102;2023-05-09T07:36:33;15.30;99.90
36552;DHT22;22559;54.176;12.102;2023-05-09T07:39:01;15.20;99.90
36552;DHT22;22559;54.176;12.102;2023-05-09T07:41:29;15.10;99.90
36552;DHT22;22559;54.176;12.102;2023-05-09T07:43:55;15.30;99.90
36552;DHT22;22559;54.176;12.102;2023-05-09T07:46:21;15.60;99.90
36552;DHT22;22559;54.176;12.102;2023-05-09T07:48:46;15.40;99.90
36552;DHT22;22559;54.176;12.102;2023-05-09T07:51:12;15.30;99.90
36552;DHT22;22559;54.176;12.102;2023-05-09T07:53:38;15.30;99.90
36552;DHT22;22559;54.176;12.102;2023-05-09T07:56:03;15.50;99.90
36552;DHT22;22559;54.176;12.102;2023-05-09T07:58:31;15.50;99.90
36552;DHT22;22559;54.176;12.102;2023-05-09T08:00:57;15.40;99.90
36552;DHT22;22559;54.176;12.102;2023-05-09T08:03:23;15.40;99.90
36552;DHT22;22559;54.176;12.102;2023-05-09T08:05:52;15.70;99.90
36552;DHT22;22559;54.176;12.102;2023-05-09T08:08:18;15.90;99.90
36552;DHT22;22559;54.176;12.102;2023-05-09T08:10:44;16.00;99.90
36552;DHT22;22559;54.176;12.102;2023-05-09T08:13:10;16.10;99.90
36552;DHT22;22559;54.176;12.102;2023-05-09T08:15:35;16.20;99.90
36552;DHT22;22559;54.176;12.102;2023-05-09T08:18:01;16.30;99.90
36552;DHT22;22559;54.176;12.102;2023-05-09T08:20:26;16.40;99.90
36552;DHT22;22559;54.176;12.102;2023-05-09T08:22:52;16.80;99.90
36552;DHT22;22559;54.176;12.102;2023-05-09T08:25:18;16.90;99.90
36552;DHT22;22559;54.176;12.102;2023-05-09T08:27:45;17.00;99.90
36552;DHT22;22559;54.176;12.102;2023-05-09T08:30:11;17.10;99.90
36552;DHT22;22559;54.176;12.102;2023-05-09T08:32:37;17.20;99.90
36552;DHT22;22559;54.176;12.102;2023-05-09T08:35:02;17.20;99.90
36552;DHT22;22559;54.176;12.102;2023-05-09T08:37:28;17.50;99.90
36552;DHT22;22559;54.176;12.102;2023-05-09T08:39:54;17.50;99.90
36552;DHT22;22559;54.176;12.102;2023-05-09T08:42:21;17.50;99.90
36552;DHT22;22559;54.176;12.102;2023-05-09T08:44:47;17.70;99.90
36552;DHT22;22559;54.176;12.102;2023-05-09T08:47:13;17.60;99.90
36552;DHT22;22559;54.176;12.102;2023-05-09T08:49:39;17.60;99.90
36552;DHT22;22559;54.176;12.102;2023-05-09T08:52:05;17.80;99.90
36552;DHT22;22559;54.176;12.102;2023-05-09T08:54:32;18.10;99.90
36552;DHT22;22559;54.176;12.102;2023-05-09T08:57:00;18.40;99.90
36552;DHT22;22559;54.176;12.102;2023-05-09T08:59:25;18.30;99.90
36552;DHT22;22559;54.176;12.102;2023-05-09T09:01:52;18.40;99.90
36552;DHT22;22559;54.176;12.102;2023-05-09T09:04:19;18.20;99.90
36552;DHT22;22559;54.176;12.102;2023-05-09T09:06:45;18.20;99.90
36552;DHT22;22559;54.176;12.102;2023-05-09T09:09:12;18.30;99.90
36552;DHT22;22559;54.176;12.102;2023-05-09T09:11:39;18.30;99.90
36552;DHT22;22559;54.176;12.102;2023-05-09T09:14:10;18.30;99.90
36552;DHT22;22559;54.176;12.102;2023-05-09T09:16:37;18.40;99.90
36552;DHT22;22559;54.176;12.102;2023-05-09T09:19:11;18.50;99.90
36552;DHT22;22559;54.176;12.102;2023-05-09T09:21:40;18.80;99.90
36552;DHT22;22559;54.176;12.102;2023-05-09T09:24:07;19.00;99.90
36552;DHT22;22559;54.176;12.102;2023-05-09T09:26:32;19.10;99.90
36552;DHT22;22559;54.176;12.102;2023-05-09T09:28:58;19.20;99.90
36552;DHT22;22559;54.176;12.102;2023-05-09T09:31:26;19.20;99.90
36552;DHT22;22559;54.176;12.102;2023-05-09T09:33:58;19.30;99.90
36552;DHT22;22559;54.176;12.102;2023-05-09T09:36:31;19.30;99.90
36552;DHT22;22559;54.176;12.102;2023-05-09T09:38:58;19.30;99.90
36552;DHT22;22559;54.176;12.102;2023-05-09T09:41:35;19.20;99.90
36552;DHT22;22559;54.176;12.102;2023-05-09T09:44:13;19.40;99.90
36552;DHT22;22559;54.176;12.102;2023-05-09T09:46:52;19.70;99.90
36552;DHT22;22559;54.176;12.102;2023-05-09T09:49:25;19.90;99.90
36552;DHT22;22559;54.176;12.102;2023-05-09T09:52:00;19.70;99.90
36552;DHT22;22559;54.176;12.102;2023-05-09T09:54:26;19.50;99.90
36552;DHT22;22559;54.176;12.102;2023-05-09T09:56:52;19.70;99.90
36552;DHT22;22559;54.176;12.102;2023-05-09T09:59:24;19.90;99.90
36552;DHT22;22559;54.176;12.102;2023-05-09T10:02:03;19.90;99.90
36552;DHT22;22559;54.176;12.102;2023-05-09T10:04:31;20.00;99.90
36552;DHT22;22559;54.176;12.102;2023-05-09T10:06:59;20.10;99.90
36552;DHT22;22559;54.176;12.102;2023-05-09T10:09:26;20.00;99.90
36552;DHT22;22559;54.176;12.102;2023-05-09T10:11:53;19.90;99.90
36552;DHT22;22559;54.176;12.102;2023-05-09T10:14:24;20.10;99.90
36552;DHT22;22559;54.176;12.102;2023-05-09T10:16:54;20.30;99.90
36552;DHT22;22559;54.176;12.102;2023-05-09T10:19:21;20.20;99.90
36552;DHT22;22559;54.176;12.102;2023-05-09T10:21:54;19.70;99.90
36552;DHT22;22559;54.176;12.102;2023-05-09T10:24:33;19.70;99.90
36552;DHT22;22559;54.176;12.102;2023-05-09T10:27:05;20.00;99.90
36552;DHT22;22559;54.176;12.102;2023-05-09T10:29:36;20.00;99.90
36552;DHT22;22559;54.176;12.102;2023-05-09T10:32:10;19.90;99.90
36552;DHT22;22559;54.176;12.102;2023-05-09T10:34:39;20.00;99.90
36552;DHT22;22559;54.176;12.102;2023-05-09T10:37:07;20.40;99.90
36552;DHT22;22559;54.176;12.102;2023-05-09T10:39:35;20.50;99.90
36552;DHT22;22559;54.176;12.102;2023-05-09T10:42:01;20.70;99.90
36552;DHT22;22559;54.176;12.102;2023-05-09T10:44:27;20.70;99.90
36552;DHT22;22559;54.176;12.102;2023-05-09T10:46:53;20.90;99.90
36552;DHT22;22559;54.176;12.102;2023-05-09T10:49:20;20.80;99.90
36552;DHT22;22559;54.176;12.102;2023-05-09T10:51:49;20.70;99.90
36552;DHT22;22559;54.176;12.102;2023-05-09T10:54:28;20.60;99.90
36552;DHT22;22559;54.176;12.102;2023-05-09T10:56:54;20.60;99.90
36552;DHT22;22559;54.176;12.102;2023-05-09T10:59:35;20.80;99.90
36552;DHT22;22559;54.176;12.102;2023-05-09T11:02:02;20.80;99.90
36552;DHT22;22559;54.176;12.102;2023-05-09T11:04:30;20.90;99.90
36552;DHT22;22559;54.176;12.102;2023-05-09T11:07:00;21.30;99.90
36552;DHT22;22559;54.176;12.102;2023-05-09T11:09:35;21.20;99.90
36552;DHT22;22559;54.176;12.102;2023-05-09T11:14:47;21.00;99.90
36552;DHT22;22559;54.176;12.102;2023-05-09T11:17:36;21.10;99.90
36552;DHT22;22559;54.176;12.102;2023-05-09T11:20:03;21.00;99.90
36552;DHT22;22559;54.176;12.102;2023-05-09T11:22:51;21.10;99.90
36552;DHT22;22559;54.176;12.102;2023-05-09T11:25:24;21.10;99.90
36552;DHT22;22559;54.176;12.102;2023-05-09T11:27:57;21.10;99.90
36552;DHT22;22559;54.176;12.102;2023-05-09T11:33:03;21.20;99.90
36552;DHT22;22559;54.176;12.102;2023-05-09T11:35:31;21.10;99.90
36552;DHT22;22559;54.176;12.102;2023-05-09T11:38:06;21.00;99.90
36552;DHT22;22559;54.176;12.102;2023-05-09T11:40:33;20.90;99.90
36552;DHT22;22559;54.176;12.102;2023-05-09T11:43:00;21.00;99.90
36552;DHT22;22559;54.176;12.102;2023-05-09T11:45:30;21.00;99.90
36552;DHT22;22559;54.176;12.102;2023-05-09T11:47:57;21.30;99.90
36552;DHT22;22559;54.176;12.102;2023-05-09T11:50:23;21.40;99.90
36552;DHT22;22559;54.176;12.102;2023-05-09T11:52:49;21.40;99.90
36552;DHT22;22559;54.176;12.102;2023-05-09T11:55:17;21.30;99.90
36552;DHT22;22559;54.176;12.102;2023-05-09T11:57:45;21.40;99.90
36552;DHT22;22559;54.176;12.102;2023-05-09T12:00:11;21.50;99.90
36552;DHT22;22559;54.176;12.102;2023-05-09T12:02:37;21.40;99.90
36552;DHT22;22559;54.176;12.102;2023-05-09T12:05:11;21.60;99.90
36552;DHT22;22559;54.176;12.102;2023-05-09T12:07:37;21.70;99.90
36552;DHT22;22559;54.176;12.102;2023-05-09T12:10:07;21.60;99.90
36552;DHT22;22559;54.176;12.102;2023-05-09T12:12:44;21.60;99.90
36552;DHT22;22559;54.176;12.102;2023-05-09T12:15:10;21.50;99.90
36552;DHT22;22559;54.176;12.102;2023-05-09T12:17:38;21.50;99.90
36552;DHT22;22559;54.176;12.102;2023-05-09T12:20:04;21.70;99.90
36552;DHT22;22559;54.176;12.102;2023-05-09T12:22:31;21.60;99.90
36552;DHT22;22559;54.176;12.102;2023-05-09T12:25:07;21.80;99.90
36552;DHT22;22559;54.176;12.102;2023-05-09T12:27:34;21.80;99.90
36552;DHT22;22559;54.176;12.102;2023-05-09T12:30:01;21.80;99.90
36552;DHT22;22559;54.176;12.102;2023-05-09T12:32:28;21.50;99.60
36552;DHT22;22559;54.176;12.102;2023-05-09T12:34:58;21.40;99.90
36552;DHT22;22559;54.176;12.102;2023-05-09T12:37:24;21.50;99.90
36552;DHT22;22559;54.176;12.102;2023-05-09T12:40:09;21.50;99.90
36552;DHT22;22559;54.176;12.102;2023-05-09T12:42:42;21.60;99.90
36552;DHT22;22559;54.176;12.102;2023-05-09T12:45:09;21.50;99.90
36552;DHT22;22559;54.176;12.102;2023-05-09T12:47:35;21.40;99.90
36552;DHT22;22559;54.176;12.102;2023-05-09T12:50:04;21.60;99.90
36552;DHT22;22559;54.176;12.102;2023-05-09T12:52:38;21.60;99.70
36552;DHT22;22559;54.176;12.102;2023-05-09T12:55:06;21.60;99.40
36552;DHT22;22559;54.176;12.102;2023-05-09T12:57:32;21.60;99.90
36552;DHT22;22559;54.176;12.102;2023-05-09T12:59:58;21.60;98.80
36552;DHT22;22559;54.176;12.102;2023-05-09T13:02:32;21.50;98.30
36552;DHT22;22559;54.176;12.102;2023-05-09T13:05:08;21.50;99.50
36552;DHT22;22559;54.176;12.102;2023-05-09T13:07:42;21.50;98.60
36552;DHT22;22559;54.176;12.102;2023-05-09T13:10:13;21.70;99.90
36552;DHT22;22559;54.176;12.102;2023-05-09T13:12:40;21.80;99.90
36552;DHT22;22559;54.176;12.102;2023-05-09T13:15:10;21.90;98.60
36552;DHT22;22559;54.176;12.102;2023-05-09T13:17:36;21.90;97.40
36552;DHT22;22559;54.176;12.102;2023-05-09T13:20:02;22.00;99.90
36552;DHT22;22559;54.176;12.102;2023-05-09T13:22:30;22.30;99.90
36552;DHT22;22559;54.176;12.102;2023-05-09T13:24:56;22.10;99.90
36552;DHT22;22559;54.176;12.102;2023-05-09T13:27:21;22.00;99.90
36552;DHT22;22559;54.176;12.102;2023-05-09T13:29:47;22.10;99.90
36552;DHT22;22559;54.176;12.102;2023-05-09T13:32:13;22.20;99.90
36552;DHT22;22559;54.176;12.102;2023-05-09T13:34:39;22.30;99.90
36552;DHT22;22559;54.176;12.102;2023-05-09T13:37:05;22.30;99.90
36552;DHT22;22559;54.176;12.102;2023-05-09T13:39:30;22.00;99.90
36552;DHT22;22559;54.176;12.102;2023-05-09T13:41:56;21.90;99.90
36552;DHT22;22559;54.176;12.102;2023-05-09T13:44:22;22.10;99.90
36552;DHT22;22559;54.176;12.102;2023-05-09T13:46:50;22.00;99.30
36552;DHT22;22559;54.176;12.102;2023-05-09T13:49:16;22.20;99.90
36552;DHT22;22559;54.176;12.102;2023-05-09T13:51:41;22.10;99.20
36552;DHT22;22559;54.176;12.102;2023-05-09T13:54:07;22.00;99.40
36552;DHT22;22559;54.176;12.102;2023-05-09T13:56:38;22.00;98.50
36552;DHT22;22559;54.176;12.102;2023-05-09T13:59:04;22.00;99.20
36552;DHT22;22559;54.176;12.102;2023-05-09T14:01:30;21.90;98.70
36552;DHT22;22559;54.176;12.102;2023-05-09T14:03:56;22.00;99.40
36552;DHT22;22559;54.176;12.102;2023-05-09T14:06:22;22.10;99.90
36552;DHT22;22559;54.176;12.102;2023-05-09T14:08:47;22.00;99.90
36552;DHT22;22559;54.176;12.102;2023-05-09T14:11:13;22.00;99.90
36552;DHT22;22559;54.176;12.102;2023-05-09T14:13:39;21.80;99.90
36552;DHT22;22559;54.176;12.102;2023-05-09T14:16:05;21.90;99.90
36552;DHT22;22559;54.176;12.102;2023-05-09T14:18:31;22.00;99.90
36552;DHT22;22559;54.176;12.102;2023-05-09T14:20:56;22.00;99.90
36552;DHT22;22559;54.176;12.102;2023-05-09T14:23:22;22.00;99.50
36552;DHT22;22559;54.176;12.102;2023-05-09T14:25:48;21.90;99.90
36552;DHT22;22559;54.176;12.102;2023-05-09T14:28:13;21.80;99.70
36552;DHT22;22559;54.176;12.102;2023-05-09T14:30:39;21.50;99.90
36552;DHT22;22559;54.176;12.102;2023-05-09T14:33:05;21.50;99.90
36552;DHT22;22559;54.176;12.102;2023-05-09T14:35:32;21.70;99.90
36552;DHT22;22559;54.176;12.102;2023-05-09T14:37:59;21.60;99.90
36552;DHT22;22559;54.176;12.102;2023-05-09T14:40:25;21.70;99.10
36552;DHT22;22559;54.176;12.102;2023-05-09T14:42:56;21.60;99.70
36552;DHT22;22559;54.176;12.102;2023-05-09T14:45:22;21.50;99.90
36552;DHT22;22559;54.176;12.102;2023-05-09T14:47:48;21.60;99.90
36552;DHT22;22559;54.176;12.102;2023-05-09T14:50:13;21.60;99.70
36552;DHT22;22559;54.176;12.102;2023-05-09T14:52:41;21.60;99.90
36552;DHT22;22559;54.176;12.102;2023-05-09T14:55:07;21.50;99.10
36552;DHT22;22559;54.176;12.102;2023-05-09T14:57:33;21.60;99.60
36552;DHT22;22559;54.176;12.102;2023-05-09T14:59:58;21.50;99.90
36552;DHT22;22559;54.176;12.102;2023-05-09T15:02:24;21.40;99.90
36552;DHT22;22559;54.176;12.102;2023-05-09T15:04:50;21.40;99.90
36552;DHT22;22559;54.176;12.102;2023-05-09T15:07:16;21.40;99.90
36552;DHT22;22559;54.176;12.102;2023-05-09T15:09:41;21.30;99.90
36552;DHT22;22559;54.176;12.102;2023-05-09T15:12:07;21.30;99.90
36552;DHT22;22559;54.176;12.102;2023-05-09T15:14:32;21.20;99.90
36552;DHT22;22559;54.176;12.102;2023-05-09T15:16:58;21.20;99.60
36552;DHT22;22559;54.176;12.102;2023-05-09T15:19:27;21.20;99.40
36552;DHT22;22559;54.176;12.102;2023-05-09T15:21:59;21.20;99.90
36552;DHT22;22559;54.176;12.102;2023-05-09T15:24:25;21.10;99.90
36552;DHT22;22559;54.176;12.102;2023-05-09T15:26:51;21.00;99.10
36552;DHT22;22559;54.176;12.102;2023-05-09T15:29:18;21.00;99.90
36552;DHT22;22559;54.176;12.102;2023-05-09T15:31:43;21.10;99.70
36552;DHT22;22559;54.176;12.102;2023-05-09T15:34:09;21.10;99.70
36552;DHT22;22559;54.176;12.102;2023-05-09T15:36:34;21.10;99.90
36552;DHT22;22559;54.176;12.102;2023-05-09T15:39:00;21.20;99.90
36552;DHT22;22559;54.176;12.102;2023-05-09T15:41:26;21.10;99.90
36552;DHT22;22559;54.176;12.102;2023-05-09T15:43:51;20.90;99.90